Brocket, North Dakota
Current Conditions -  °F | °C
As of 5:55 PM on Monday 20 Oct 2014 (Local Time) from KDVL Reporting Station
Clear Clear  
Wind Chill: 63°   Ceiling: Unl
Heat Index: 63°   Visibility: 5mi
Dew Point: 43°   Wind: 8mph
Humidity: 48%   Direction: 130°SE
Pressure: 29.97"   Gusts: NA
Location:  48.21°N, 98.36°W
Report Text: KDVL 202255Z AUTO 13007KT 5SM CLR 17/06 A2997 RMK AO1
Loading
Personal Weather Stations






























Interactive Weather Map
Tropical Storm Tracking
New forecast layout! Learn more

10-Day Weather Forecast

Advertisements
Track Severe Weather on mobile